CheckWX is a tool to help pilots better visualize weather data.  It is not intended as a substitute for an official pre-flight weather briefing.

18:33:39 UTC

KAZO TAF
Kalamazoo / Battle Creek International Airport
Kalamazoo, Michigan, USA
KAZO 272340Z 2800/2824 19005KT P6SM VCSH BKN040 FM280200 VRB03KT P6SM BKN100 FM281500 00000KT 6SM BR VCTS BKN025CB FM281800 18005KT P6SM SHRA BKN020 FM282200 24005KT P6SM SHRA VCTS SCT080CB

May-28@
00:00 UTC

May-28 @ 00:00 UTC

May-28@
02:00 UTC

May-28 @ 02:00 UTC

TAF KAZO 272340Z 2800/2824 19005KT P6SM VCSH BKN040

Expired

Wind
  • 190° at 5 KTS
Conditions
Area Showers
Cloud Levels
  • Broken at 4,000' AGL

May-28@
02:00 UTC

May-28 @ 02:00 UTC

May-28@
15:00 UTC

May-28 @ 15:00 UTC

FM280200 VRB03KT P6SM BKN100

Expired

Wind
  • Variable at 3 KTS
Cloud Levels
  • Broken at 10,000' AGL

May-28@
15:00 UTC

May-28 @ 15:00 UTC

May-28@
18:00 UTC

May-28 @ 18:00 UTC

FM281500 00000KT 6SM BR VCTS BKN025CB

Expired

Conditions
Mist, Area Thunderstorm
Cloud Levels
  • Broken at 2,500' AGL

May-28@
18:00 UTC

May-28 @ 18:00 UTC

May-28@
22:00 UTC

May-28 @ 22:00 UTC

FM281800 18005KT P6SM SHRA BKN020

From

From Standard forecast or significant change

Wind
  • 180° at 5 KTS
Conditions
Showers, Rain
Cloud Levels
  • Broken at 2,000' AGL

May-28@
22:00 UTC

May-28 @ 22:00 UTC

May-29@
00:00 UTC

May-29 @ 00:00 UTC

FM282200 24005KT P6SM SHRA VCTS SCT080CB

From

From Standard forecast or significant change

Wind
  • 240° at 5 KTS
Conditions
Showers, Rain, Area Thunderstorm
Cloud Levels
  • Scattered at 8,000' AGL